sensor_id;sensor_type;location;lat;lon;timestamp;temperature;humidity
56729;DHT22;42612;52.232;7.560;2023-03-21T00:01:18;13.10;61.40
56729;DHT22;42612;52.232;7.560;2023-03-21T00:03:44;13.10;61.40
56729;DHT22;42612;52.232;7.560;2023-03-21T00:06:14;13.10;61.40
56729;DHT22;42612;52.232;7.560;2023-03-21T00:08:40;13.10;61.40
56729;DHT22;42612;52.232;7.560;2023-03-21T00:11:08;13.10;61.40
56729;DHT22;42612;52.232;7.560;2023-03-21T00:13:35;13.20;61.50
56729;DHT22;42612;52.232;7.560;2023-03-21T00:16:08;13.20;61.40
56729;DHT22;42612;52.232;7.560;2023-03-21T00:18:43;13.20;61.50
56729;DHT22;42612;52.232;7.560;2023-03-21T00:21:15;13.20;61.30
56729;DHT22;42612;52.232;7.560;2023-03-21T00:23:43;13.20;61.30
56729;DHT22;42612;52.232;7.560;2023-03-21T00:26:10;13.20;61.30
56729;DHT22;42612;52.232;7.560;2023-03-21T00:28:38;13.20;61.20
56729;DHT22;42612;52.232;7.560;2023-03-21T00:31:06;13.20;61.30
56729;DHT22;42612;52.232;7.560;2023-03-21T00:33:32;13.20;61.30
56729;DHT22;42612;52.232;7.560;2023-03-21T00:35:59;13.30;61.30
56729;DHT22;42612;52.232;7.560;2023-03-21T00:38:26;13.30;61.30
56729;DHT22;42612;52.232;7.560;2023-03-21T00:40:52;13.30;61.30
56729;DHT22;42612;52.232;7.560;2023-03-21T00:43:18;13.30;61.30
56729;DHT22;42612;52.232;7.560;2023-03-21T00:45:48;13.30;61.30
56729;DHT22;42612;52.232;7.560;2023-03-21T00:48:15;13.30;61.20
56729;DHT22;42612;52.232;7.560;2023-03-21T00:50:44;13.30;61.30
56729;DHT22;42612;52.232;7.560;2023-03-21T00:53:11;13.30;61.30
56729;DHT22;42612;52.232;7.560;2023-03-21T00:55:37;13.30;61.30
56729;DHT22;42612;52.232;7.560;2023-03-21T00:58:04;13.30;61.30
56729;DHT22;42612;52.232;7.560;2023-03-21T01:00:30;13.30;62.10
56729;DHT22;42612;52.232;7.560;2023-03-21T01:02:57;13.30;61.40
56729;DHT22;42612;52.232;7.560;2023-03-21T01:05:25;13.30;61.50
56729;DHT22;42612;52.232;7.560;2023-03-21T01:08:12;13.30;61.50
56729;DHT22;42612;52.232;7.560;2023-03-21T01:10:43;13.30;61.50
56729;DHT22;42612;52.232;7.560;2023-03-21T01:13:11;13.30;61.40
56729;DHT22;42612;52.232;7.560;2023-03-21T01:15:44;13.30;61.40
56729;DHT22;42612;52.232;7.560;2023-03-21T01:18:14;13.40;61.60
56729;DHT22;42612;52.232;7.560;2023-03-21T01:20:42;13.30;61.40
56729;DHT22;42612;52.232;7.560;2023-03-21T01:23:10;13.40;61.50
56729;DHT22;42612;52.232;7.560;2023-03-21T01:25:37;13.30;61.40
56729;DHT22;42612;52.232;7.560;2023-03-21T01:28:03;13.30;62.20
56729;DHT22;42612;52.232;7.560;2023-03-21T01:30:29;13.40;61.60
56729;DHT22;42612;52.232;7.560;2023-03-21T01:32:56;13.40;61.70
56729;DHT22;42612;52.232;7.560;2023-03-21T01:35:22;13.30;61.60
56729;DHT22;42612;52.232;7.560;2023-03-21T01:37:48;13.30;61.70
56729;DHT22;42612;52.232;7.560;2023-03-21T01:40:21;13.30;61.80
56729;DHT22;42612;52.232;7.560;2023-03-21T01:42:48;13.30;62.00
56729;DHT22;42612;52.232;7.560;2023-03-21T01:48:30;13.30;62.30
56729;DHT22;42612;52.232;7.560;2023-03-21T01:50:57;13.30;61.70
56729;DHT22;42612;52.232;7.560;2023-03-21T01:53:27;13.30;61.80
56729;DHT22;42612;52.232;7.560;2023-03-21T01:56:02;13.30;61.90
56729;DHT22;42612;52.232;7.560;2023-03-21T01:58:31;13.40;62.10
56729;DHT22;42612;52.232;7.560;2023-03-21T02:00:57;13.40;61.90
56729;DHT22;42612;52.232;7.560;2023-03-21T02:03:24;13.40;61.90
56729;DHT22;42612;52.232;7.560;2023-03-21T02:06:01;13.40;62.00
56729;DHT22;42612;52.232;7.560;2023-03-21T02:08:31;13.40;62.20
56729;DHT22;42612;52.232;7.560;2023-03-21T02:10:57;13.40;62.00
56729;DHT22;42612;52.232;7.560;2023-03-21T02:13:23;13.40;61.90
56729;DHT22;42612;52.232;7.560;2023-03-21T02:16:18;13.40;62.00
56729;DHT22;42612;52.232;7.560;2023-03-21T02:27:23;13.40;62.30
56729;DHT22;42612;52.232;7.560;2023-03-21T02:36:14;13.40;62.60
56729;DHT22;42612;52.232;7.560;2023-03-21T02:41:55;13.40;62.20
56729;DHT22;42612;52.232;7.560;2023-03-21T02:47:43;13.40;62.70
56729;DHT22;42612;52.232;7.560;2023-03-21T02:50:25;13.40;62.20
56729;DHT22;42612;52.232;7.560;2023-03-21T02:52:54;13.50;62.40
56729;DHT22;42612;52.232;7.560;2023-03-21T02:55:24;13.40;62.30
56729;DHT22;42612;52.232;7.560;2023-03-21T02:57:53;13.40;62.40
56729;DHT22;42612;52.232;7.560;2023-03-21T03:00:24;13.50;62.50
56729;DHT22;42612;52.232;7.560;2023-03-21T03:02:52;13.40;62.40
56729;DHT22;42612;52.232;7.560;2023-03-21T03:05:27;13.40;62.30
56729;DHT22;42612;52.232;7.560;2023-03-21T03:08:16;13.40;62.80
56729;DHT22;42612;52.232;7.560;2023-03-21T03:16:45;13.50;62.60
56729;DHT22;42612;52.232;7.560;2023-03-21T03:19:33;13.40;63.10
56729;DHT22;42612;52.232;7.560;2023-03-21T03:22:19;13.40;63.10
56729;DHT22;42612;52.232;7.560;2023-03-21T03:24:56;13.40;63.30
56729;DHT22;42612;52.232;7.560;2023-03-21T03:27:28;13.40;63.10
56729;DHT22;42612;52.232;7.560;2023-03-21T03:29:59;13.40;63.00
56729;DHT22;42612;52.232;7.560;2023-03-21T03:32:41;13.40;63.00
56729;DHT22;42612;52.232;7.560;2023-03-21T03:35:12;13.40;63.50
56729;DHT22;42612;52.232;7.560;2023-03-21T03:37:45;13.30;63.20
56729;DHT22;42612;52.232;7.560;2023-03-21T03:40:41;13.40;63.30
56729;DHT22;42612;52.232;7.560;2023-03-21T03:43:10;13.30;63.70
56729;DHT22;42612;52.232;7.560;2023-03-21T03:45:48;13.30;63.30
56729;DHT22;42612;52.232;7.560;2023-03-21T03:48:25;13.30;63.70
56729;DHT22;42612;52.232;7.560;2023-03-21T03:50:53;13.30;63.70
56729;DHT22;42612;52.232;7.560;2023-03-21T03:53:36;13.30;63.40
56729;DHT22;42612;52.232;7.560;2023-03-21T03:56:06;13.20;63.80
56729;DHT22;42612;52.232;7.560;2023-03-21T03:58:34;13.30;63.70
56729;DHT22;42612;52.232;7.560;2023-03-21T04:01:03;13.20;63.70
56729;DHT22;42612;52.232;7.560;2023-03-21T04:03:30;13.30;63.70
56729;DHT22;42612;52.232;7.560;2023-03-21T04:05:56;13.30;63.60
56729;DHT22;42612;52.232;7.560;2023-03-21T04:08:21;13.30;63.50
56729;DHT22;42612;52.232;7.560;2023-03-21T04:10:48;13.30;63.60
56729;DHT22;42612;52.232;7.560;2023-03-21T04:13:13;13.30;63.50
56729;DHT22;42612;52.232;7.560;2023-03-21T04:15:39;13.30;63.60
56729;DHT22;42612;52.232;7.560;2023-03-21T04:18:05;13.30;63.50
56729;DHT22;42612;52.232;7.560;2023-03-21T04:20:31;13.30;63.50
56729;DHT22;42612;52.232;7.560;2023-03-21T04:22:57;13.30;63.50
56729;DHT22;42612;52.232;7.560;2023-03-21T04:25:23;13.30;63.50
56729;DHT22;42612;52.232;7.560;2023-03-21T04:27:49;13.30;63.50
56729;DHT22;42612;52.232;7.560;2023-03-21T04:30:15;13.30;63.50
56729;DHT22;42612;52.232;7.560;2023-03-21T04:32:41;13.30;63.50
56729;DHT22;42612;52.232;7.560;2023-03-21T04:35:08;13.30;63.50
56729;DHT22;42612;52.232;7.560;2023-03-21T04:37:35;13.40;63.60
56729;DHT22;42612;52.232;7.560;2023-03-21T04:40:04;13.40;63.50
56729;DHT22;42612;52.232;7.560;2023-03-21T04:42:33;13.40;63.50
56729;DHT22;42612;52.232;7.560;2023-03-21T04:44:59;13.40;64.10
56729;DHT22;42612;52.232;7.560;2023-03-21T04:47:26;13.40;63.90
56729;DHT22;42612;52.232;7.560;2023-03-21T04:49:52;13.40;63.10
56729;DHT22;42612;52.232;7.560;2023-03-21T04:52:19;13.40;63.20
56729;DHT22;42612;52.232;7.560;2023-03-21T04:54:45;13.40;63.20
56729;DHT22;42612;52.232;7.560;2023-03-21T04:57:11;13.40;63.30
56729;DHT22;42612;52.232;7.560;2023-03-21T04:59:37;13.40;63.30
56729;DHT22;42612;52.232;7.560;2023-03-21T05:02:02;13.40;63.30
56729;DHT22;42612;52.232;7.560;2023-03-21T05:04:29;13.40;63.30
56729;DHT22;42612;52.232;7.560;2023-03-21T05:06:55;13.40;63.30
56729;DHT22;42612;52.232;7.560;2023-03-21T05:09:21;13.40;63.40
56729;DHT22;42612;52.232;7.560;2023-03-21T05:11:47;13.40;63.40
56729;DHT22;42612;52.232;7.560;2023-03-21T05:14:16;13.40;63.30
56729;DHT22;42612;52.232;7.560;2023-03-21T05:16:44;13.40;63.40
56729;DHT22;42612;52.232;7.560;2023-03-21T05:19:18;13.40;63.30
56729;DHT22;42612;52.232;7.560;2023-03-21T05:21:47;13.40;63.40
56729;DHT22;42612;52.232;7.560;2023-03-21T05:24:15;13.40;63.30
56729;DHT22;42612;52.232;7.560;2023-03-21T05:26:44;13.50;63.50
56729;DHT22;42612;52.232;7.560;2023-03-21T05:29:15;13.40;63.40
56729;DHT22;42612;52.232;7.560;2023-03-21T05:31:42;13.40;63.40
56729;DHT22;42612;52.232;7.560;2023-03-21T05:34:09;13.40;63.40
56729;DHT22;42612;52.232;7.560;2023-03-21T05:36:35;13.50;63.40
56729;DHT22;42612;52.232;7.560;2023-03-21T05:39:02;13.50;63.40
56729;DHT22;42612;52.232;7.560;2023-03-21T05:41:28;13.50;63.40
56729;DHT22;42612;52.232;7.560;2023-03-21T05:43:53;13.50;63.40
56729;DHT22;42612;52.232;7.560;2023-03-21T05:46:19;13.50;63.40
56729;DHT22;42612;52.232;7.560;2023-03-21T05:48:45;13.50;63.40
56729;DHT22;42612;52.232;7.560;2023-03-21T05:51:11;13.50;63.30
56729;DHT22;42612;52.232;7.560;2023-03-21T05:53:36;13.50;63.30
56729;DHT22;42612;52.232;7.560;2023-03-21T05:56:02;13.50;63.30
56729;DHT22;42612;52.232;7.560;2023-03-21T05:58:28;13.50;63.40
56729;DHT22;42612;52.232;7.560;2023-03-21T06:00:54;13.50;63.40
56729;DHT22;42612;52.232;7.560;2023-03-21T06:03:20;13.50;63.40
56729;DHT22;42612;52.232;7.560;2023-03-21T06:05:46;13.50;63.40
56729;DHT22;42612;52.232;7.560;2023-03-21T06:08:12;13.50;63.40
56729;DHT22;42612;52.232;7.560;2023-03-21T06:10:38;13.50;63.40
56729;DHT22;42612;52.232;7.560;2023-03-21T06:13:03;13.50;63.40
56729;DHT22;42612;52.232;7.560;2023-03-21T06:15:29;13.50;63.40
56729;DHT22;42612;52.232;7.560;2023-03-21T06:17:55;13.50;63.40
56729;DHT22;42612;52.232;7.560;2023-03-21T06:20:20;13.50;63.40
56729;DHT22;42612;52.232;7.560;2023-03-21T06:22:46;13.50;63.40
56729;DHT22;42612;52.232;7.560;2023-03-21T06:25:12;13.50;63.40
56729;DHT22;42612;52.232;7.560;2023-03-21T06:27:38;13.50;63.30
56729;DHT22;42612;52.232;7.560;2023-03-21T06:30:04;13.50;63.20
56729;DHT22;42612;52.232;7.560;2023-03-21T06:32:31;13.50;63.30
56729;DHT22;42612;52.232;7.560;2023-03-21T06:34:57;13.50;63.30
56729;DHT22;42612;52.232;7.560;2023-03-21T06:37:23;13.50;63.30
56729;DHT22;42612;52.232;7.560;2023-03-21T06:39:50;13.50;63.40
56729;DHT22;42612;52.232;7.560;2023-03-21T06:42:16;13.50;63.40
56729;DHT22;42612;52.232;7.560;2023-03-21T06:44:42;13.50;63.40
56729;DHT22;42612;52.232;7.560;2023-03-21T06:47:08;13.50;63.50
56729;DHT22;42612;52.232;7.560;2023-03-21T06:49:33;13.50;63.50
56729;DHT22;42612;52.232;7.560;2023-03-21T06:51:59;13.50;63.60
56729;DHT22;42612;52.232;7.560;2023-03-21T06:54:25;13.50;63.60
56729;DHT22;42612;52.232;7.560;2023-03-21T06:56:51;13.50;63.60
56729;DHT22;42612;52.232;7.560;2023-03-21T06:59:17;13.50;63.60
56729;DHT22;42612;52.232;7.560;2023-03-21T07:01:42;13.50;63.70
56729;DHT22;42612;52.232;7.560;2023-03-21T07:04:09;13.50;63.70
56729;DHT22;42612;52.232;7.560;2023-03-21T07:06:35;13.40;63.70
56729;DHT22;42612;52.232;7.560;2023-03-21T07:09:02;13.40;63.90
56729;DHT22;42612;52.232;7.560;2023-03-21T07:11:30;13.40;63.90
56729;DHT22;42612;52.232;7.560;2023-03-21T07:13:56;13.40;63.90
56729;DHT22;42612;52.232;7.560;2023-03-21T07:16:22;13.40;64.10
56729;DHT22;42612;52.232;7.560;2023-03-21T07:18:49;13.40;64.10
56729;DHT22;42612;52.232;7.560;2023-03-21T07:21:15;13.40;64.20
56729;DHT22;42612;52.232;7.560;2023-03-21T07:23:41;13.40;64.40
56729;DHT22;42612;52.232;7.560;2023-03-21T07:26:07;13.30;64.40
56729;DHT22;42612;52.232;7.560;2023-03-21T07:28:33;13.30;64.50
56729;DHT22;42612;52.232;7.560;2023-03-21T07:31:02;13.30;64.60
56729;DHT22;42612;52.232;7.560;2023-03-21T07:33:29;13.30;64.80
56729;DHT22;42612;52.232;7.560;2023-03-21T07:35:55;13.30;64.70
56729;DHT22;42612;52.232;7.560;2023-03-21T07:38:22;13.30;64.80
56729;DHT22;42612;52.232;7.560;2023-03-21T07:40:49;13.30;64.90
56729;DHT22;42612;52.232;7.560;2023-03-21T07:43:15;13.40;65.00
56729;DHT22;42612;52.232;7.560;2023-03-21T07:45:42;13.30;65.00
56729;DHT22;42612;52.232;7.560;2023-03-21T07:48:09;13.40;65.20
56729;DHT22;42612;52.232;7.560;2023-03-21T07:50:38;13.40;65.20
56729;DHT22;42612;52.232;7.560;2023-03-21T07:53:04;13.40;65.00
56729;DHT22;42612;52.232;7.560;2023-03-21T07:55:30;13.40;65.00
56729;DHT22;42612;52.232;7.560;2023-03-21T07:57:59;13.40;65.00
56729;DHT22;42612;52.232;7.560;2023-03-21T08:00:26;13.40;65.10
56729;DHT22;42612;52.232;7.560;2023-03-21T08:02:53;13.50;65.80
56729;DHT22;42612;52.232;7.560;2023-03-21T08:05:28;13.50;64.70
56729;DHT22;42612;52.232;7.560;2023-03-21T08:08:01;13.50;65.10
56729;DHT22;42612;52.232;7.560;2023-03-21T08:10:28;13.50;65.00
56729;DHT22;42612;52.232;7.560;2023-03-21T08:12:54;13.50;65.00
56729;DHT22;42612;52.232;7.560;2023-03-21T08:15:19;13.50;65.00
56729;DHT22;42612;52.232;7.560;2023-03-21T08:17:45;13.50;65.00
56729;DHT22;42612;52.232;7.560;2023-03-21T08:20:14;13.50;65.10
56729;DHT22;42612;52.232;7.560;2023-03-21T08:22:41;13.50;65.20
56729;DHT22;42612;52.232;7.560;2023-03-21T08:25:09;13.50;65.10
56729;DHT22;42612;52.232;7.560;2023-03-21T08:27:39;13.50;65.20
56729;DHT22;42612;52.232;7.560;2023-03-21T08:30:06;13.50;65.20
56729;DHT22;42612;52.232;7.560;2023-03-21T08:32:32;13.60;66.10
56729;DHT22;42612;52.232;7.560;2023-03-21T08:35:02;13.60;65.10
56729;DHT22;42612;52.232;7.560;2023-03-21T08:37:29;13.60;65.40
56729;DHT22;42612;52.232;7.560;2023-03-21T08:39:55;13.60;65.30
56729;DHT22;42612;52.232;7.560;2023-03-21T08:42:21;13.60;65.40
56729;DHT22;42612;52.232;7.560;2023-03-21T08:44:48;13.60;65.40
56729;DHT22;42612;52.232;7.560;2023-03-21T08:47:14;13.60;65.60
56729;DHT22;42612;52.232;7.560;2023-03-21T08:49:40;13.60;65.70
56729;DHT22;42612;52.232;7.560;2023-03-21T08:52:06;13.60;65.70
56729;DHT22;42612;52.232;7.560;2023-03-21T08:54:32;13.60;65.70
56729;DHT22;42612;52.232;7.560;2023-03-21T08:56:58;13.60;65.70
56729;DHT22;42612;52.232;7.560;2023-03-21T08:59:23;13.60;65.70
56729;DHT22;42612;52.232;7.560;2023-03-21T09:01:49;13.60;65.70
56729;DHT22;42612;52.232;7.560;2023-03-21T09:04:15;13.70;65.90
56729;DHT22;42612;52.232;7.560;2023-03-21T09:06:43;13.70;65.90
56729;DHT22;42612;52.232;7.560;2023-03-21T09:09:14;13.70;66.60
56729;DHT22;42612;52.232;7.560;2023-03-21T09:11:40;13.70;65.50
56729;DHT22;42612;52.232;7.560;2023-03-21T09:14:06;13.70;66.20
56729;DHT22;42612;52.232;7.560;2023-03-21T09:16:32;13.70;65.50
56729;DHT22;42612;52.232;7.560;2023-03-21T09:18:58;13.70;65.60
56729;DHT22;42612;52.232;7.560;2023-03-21T09:21:25;13.70;65.60
56729;DHT22;42612;52.232;7.560;2023-03-21T09:23:53;13.70;65.70
56729;DHT22;42612;52.232;7.560;2023-03-21T09:26:22;13.70;65.70
56729;DHT22;42612;52.232;7.560;2023-03-21T09:28:48;13.70;65.80
56729;DHT22;42612;52.232;7.560;2023-03-21T09:31:16;13.70;65.80
56729;DHT22;42612;52.232;7.560;2023-03-21T09:33:46;13.70;65.70
56729;DHT22;42612;52.232;7.560;2023-03-21T09:36:12;13.80;65.70
56729;DHT22;42612;52.232;7.560;2023-03-21T09:38:44;13.70;65.80
56729;DHT22;42612;52.232;7.560;2023-03-21T09:44:07;13.80;66.60
56729;DHT22;42612;52.232;7.560;2023-03-21T09:49:26;13.80;65.90
56729;DHT22;42612;52.232;7.560;2023-03-21T09:52:00;13.80;66.00
56729;DHT22;42612;52.232;7.560;2023-03-21T09:54:36;13.80;66.10
56729;DHT22;42612;52.232;7.560;2023-03-21T09:57:23;13.80;66.30
56729;DHT22;42612;52.232;7.560;2023-03-21T09:59:51;13.80;66.30
56729;DHT22;42612;52.232;7.560;2023-03-21T10:05:01;13.80;66.40
56729;DHT22;42612;52.232;7.560;2023-03-21T10:07:39;13.80;66.00
56729;DHT22;42612;52.232;7.560;2023-03-21T10:10:16;13.90;66.20
56729;DHT22;42612;52.232;7.560;2023-03-21T10:12:45;13.80;66.30
56729;DHT22;42612;52.232;7.560;2023-03-21T10:15:16;13.90;67.00
56729;DHT22;42612;52.232;7.560;2023-03-21T10:17:58;13.90;66.10
56729;DHT22;42612;52.232;7.560;2023-03-21T10:20:32;13.90;66.40
56729;DHT22;42612;52.232;7.560;2023-03-21T10:23:03;13.90;66.40
56729;DHT22;42612;52.232;7.560;2023-03-21T10:25:44;13.90;66.40
56729;DHT22;42612;52.232;7.560;2023-03-21T10:28:31;13.90;66.40
56729;DHT22;42612;52.232;7.560;2023-03-21T10:31:01;13.90;66.80
56729;DHT22;42612;52.232;7.560;2023-03-21T10:33:37;13.90;66.50
56729;DHT22;42612;52.232;7.560;2023-03-21T10:36:10;13.90;67.00
56729;DHT22;42612;52.232;7.560;2023-03-21T10:38:43;14.00;66.90
56729;DHT22;42612;52.232;7.560;2023-03-21T10:41:11;14.00;66.60
56729;DHT22;42612;52.232;7.560;2023-03-21T10:43:38;14.00;66.50
56729;DHT22;42612;52.232;7.560;2023-03-21T10:46:16;14.00;66.60
56729;DHT22;42612;52.232;7.560;2023-03-21T10:48:50;14.00;66.90
56729;DHT22;42612;52.232;7.560;2023-03-21T10:51:24;14.00;66.70
56729;DHT22;42612;52.232;7.560;2023-03-21T10:54:05;14.00;66.60
56729;DHT22;42612;52.232;7.560;2023-03-21T10:56:37;14.10;67.20
56729;DHT22;42612;52.232;7.560;2023-03-21T10:59:08;14.00;66.80
56729;DHT22;42612;52.232;7.560;2023-03-21T11:01:42;14.10;66.60
56729;DHT22;42612;52.232;7.560;2023-03-21T11:04:19;14.10;66.60
56729;DHT22;42612;52.232;7.560;2023-03-21T11:07:03;14.10;66.90
56729;DHT22;42612;52.232;7.560;2023-03-21T11:09:49;14.10;67.30
56729;DHT22;42612;52.232;7.560;2023-03-21T11:12:32;14.20;67.20
56729;DHT22;42612;52.232;7.560;2023-03-21T11:18:28;14.20;67.40
56729;DHT22;42612;52.232;7.560;2023-03-21T11:21:07;14.20;66.80
56729;DHT22;42612;52.232;7.560;2023-03-21T11:23:40;14.20;66.70
56729;DHT22;42612;52.232;7.560;2023-03-21T11:26:11;14.30;66.40
56729;DHT22;42612;52.232;7.560;2023-03-21T11:28:41;14.30;66.40
56729;DHT22;42612;52.232;7.560;2023-03-21T11:31:09;14.20;66.40
56729;DHT22;42612;52.232;7.560;2023-03-21T11:33:42;14.20;66.20
56729;DHT22;42612;52.232;7.560;2023-03-21T11:36:31;14.30;66.30
56729;DHT22;42612;52.232;7.560;2023-03-21T11:39:11;14.30;66.50
56729;DHT22;42612;52.232;7.560;2023-03-21T11:41:40;14.30;65.90
56729;DHT22;42612;52.232;7.560;2023-03-21T11:44:29;14.30;65.80
56729;DHT22;42612;52.232;7.560;2023-03-21T11:47:00;14.30;66.00
56729;DHT22;42612;52.232;7.560;2023-03-21T11:49:26;14.30;66.00
56729;DHT22;42612;52.232;7.560;2023-03-21T11:55:14;14.40;66.30
56729;DHT22;42612;52.232;7.560;2023-03-21T12:06:00;14.40;66.40
56729;DHT22;42612;52.232;7.560;2023-03-21T12:11:18;14.40;66.20
56729;DHT22;42612;52.232;7.560;2023-03-21T12:14:09;14.40;66.30
56729;DHT22;42612;52.232;7.560;2023-03-21T12:23:31;14.50;66.50
56729;DHT22;42612;52.232;7.560;2023-03-21T12:26:33;14.50;66.70
56729;DHT22;42612;52.232;7.560;2023-03-21T12:29:13;14.40;66.50
56729;DHT22;42612;52.232;7.560;2023-03-21T12:31:49;14.40;66.10
56729;DHT22;42612;52.232;7.560;2023-03-21T12:48:52;14.50;66.30
56729;DHT22;42612;52.232;7.560;2023-03-21T12:51:28;14.50;66.10
56729;DHT22;42612;52.232;7.560;2023-03-21T12:59:36;14.60;66.30
56729;DHT22;42612;52.232;7.560;2023-03-21T13:04:56;14.60;66.80
56729;DHT22;42612;52.232;7.560;2023-03-21T13:07:25;14.60;66.10
56729;DHT22;42612;52.232;7.560;2023-03-21T13:09:53;14.70;66.00
56729;DHT22;42612;52.232;7.560;2023-03-21T13:12:40;14.60;65.80
56729;DHT22;42612;52.232;7.560;2023-03-21T13:15:33;14.70;65.80
56729;DHT22;42612;52.232;7.560;2023-03-21T13:24:04;14.70;65.90
56729;DHT22;42612;52.232;7.560;2023-03-21T13:26:42;14.70;65.70
56729;DHT22;42612;52.232;7.560;2023-03-21T13:35:14;14.70;65.70
56729;DHT22;42612;52.232;7.560;2023-03-21T13:37:48;14.70;65.60
56729;DHT22;42612;52.232;7.560;2023-03-21T13:40:22;14.70;65.70
56729;DHT22;42612;52.232;7.560;2023-03-21T13:42:59;14.70;65.70
56729;DHT22;42612;52.232;7.560;2023-03-21T13:45:37;14.70;65.50
56729;DHT22;42612;52.232;7.560;2023-03-21T13:48:29;14.70;65.50
56729;DHT22;42612;52.232;7.560;2023-03-21T13:51:02;14.80;66.00
56729;DHT22;42612;52.232;7.560;2023-03-21T13:53:39;14.80;65.60
56729;DHT22;42612;52.232;7.560;2023-03-21T14:04:16;14.90;65.10
56729;DHT22;42612;52.232;7.560;2023-03-21T14:06:58;14.90;64.30
56729;DHT22;42612;52.232;7.560;2023-03-21T14:09:46;14.90;64.10
56729;DHT22;42612;52.232;7.560;2023-03-21T14:12:16;14.90;64.00
56729;DHT22;42612;52.232;7.560;2023-03-21T14:15:23;14.90;64.30
56729;DHT22;42612;52.232;7.560;2023-03-21T14:17:57;14.90;64.30
56729;DHT22;42612;52.232;7.560;2023-03-21T14:20:29;14.90;64.30
56729;DHT22;42612;52.232;7.560;2023-03-21T14:22:56;14.90;64.20
56729;DHT22;42612;52.232;7.560;2023-03-21T14:25:24;14.90;64.10
56729;DHT22;42612;52.232;7.560;2023-03-21T14:27:56;14.90;64.20
56729;DHT22;42612;52.232;7.560;2023-03-21T14:30:27;15.00;64.20
56729;DHT22;42612;52.232;7.560;2023-03-21T14:33:45;15.00;64.10
56729;DHT22;42612;52.232;7.560;2023-03-21T14:35:58;15.00;64.20
56729;DHT22;42612;52.232;7.560;2023-03-21T14:38:33;15.00;64.30
56729;DHT22;42612;52.232;7.560;2023-03-21T14:41:01;15.10;64.40
56729;DHT22;42612;52.232;7.560;2023-03-21T14:43:27;15.10;64.30
56729;DHT22;42612;52.232;7.560;2023-03-21T14:45:55;15.10;64.20
56729;DHT22;42612;52.232;7.560;2023-03-21T14:48:34;15.20;64.30
56729;DHT22;42612;52.232;7.560;2023-03-21T14:51:05;15.20;64.30
56729;DHT22;42612;52.232;7.560;2023-03-21T14:53:37;15.20;64.10
56729;DHT22;42612;52.232;7.560;2023-03-21T14:56:14;15.20;64.10
56729;DHT22;42612;52.232;7.560;2023-03-21T14:58:44;15.20;63.80
56729;DHT22;42612;52.232;7.560;2023-03-21T15:01:31;15.30;63.90
56729;DHT22;42612;52.232;7.560;2023-03-21T15:04:00;15.30;63.70
56729;DHT22;42612;52.232;7.560;2023-03-21T15:06:29;15.30;63.70
56729;DHT22;42612;52.232;7.560;2023-03-21T15:08:56;15.30;63.60
56729;DHT22;42612;52.232;7.560;2023-03-21T15:14:02;15.40;63.80
56729;DHT22;42612;52.232;7.560;2023-03-21T15:16:30;15.40;63.70
56729;DHT22;42612;52.232;7.560;2023-03-21T15:18:57;15.40;63.70
56729;DHT22;42612;52.232;7.560;2023-03-21T15:21:29;15.40;63.50
56729;DHT22;42612;52.232;7.560;2023-03-21T15:24:08;15.40;63.30
56729;DHT22;42612;52.232;7.560;2023-03-21T15:26:39;15.40;63.40
56729;DHT22;42612;52.232;7.560;2023-03-21T15:29:08;15.40;63.30
56729;DHT22;42612;52.232;7.560;2023-03-21T15:31:37;15.40;62.90
56729;DHT22;42612;52.232;7.560;2023-03-21T15:34:05;15.40;62.60
56729;DHT22;42612;52.232;7.560;2023-03-21T15:36:33;15.40;62.50
56729;DHT22;42612;52.232;7.560;2023-03-21T15:39:05;15.50;62.30
56729;DHT22;42612;52.232;7.560;2023-03-21T15:41:33;15.40;61.70
56729;DHT22;42612;52.232;7.560;2023-03-21T15:46:48;15.50;60.80
56729;DHT22;42612;52.232;7.560;2023-03-21T15:51:46;15.50;61.30
56729;DHT22;42612;52.232;7.560;2023-03-21T15:54:24;15.50;61.20
56729;DHT22;42612;52.232;7.560;2023-03-21T15:57:03;15.60;60.70
56729;DHT22;42612;52.232;7.560;2023-03-21T15:59:40;15.60;60.70
56729;DHT22;42612;52.232;7.560;2023-03-21T16:02:20;15.60;60.40
56729;DHT22;42612;52.232;7.560;2023-03-21T16:05:29;15.70;60.00
56729;DHT22;42612;52.232;7.560;2023-03-21T16:07:59;15.80;59.60
56729;DHT22;42612;52.232;7.560;2023-03-21T16:10:33;15.90;60.60
56729;DHT22;42612;52.232;7.560;2023-03-21T16:13:02;16.00;60.30
56729;DHT22;42612;52.232;7.560;2023-03-21T16:15:28;16.00;60.70
56729;DHT22;42612;52.232;7.560;2023-03-21T16:18:00;16.10;59.90
56729;DHT22;42612;52.232;7.560;2023-03-21T16:20:31;16.20;59.50
56729;DHT22;42612;52.232;7.560;2023-03-21T16:23:00;16.30;59.30
56729;DHT22;42612;52.232;7.560;2023-03-21T16:25:26;16.40;59.60
56729;DHT22;42612;52.232;7.560;2023-03-21T16:27:53;16.40;59.10
56729;DHT22;42612;52.232;7.560;2023-03-21T16:30:20;16.40;59.10
56729;DHT22;42612;52.232;7.560;2023-03-21T16:32:47;16.50;58.60
56729;DHT22;42612;52.232;7.560;2023-03-21T16:35:14;16.50;58.30
56729;DHT22;42612;52.232;7.560;2023-03-21T16:37:41;16.40;58.20
56729;DHT22;42612;52.232;7.560;2023-03-21T16:40:35;16.40;58.20
56729;DHT22;42612;52.232;7.560;2023-03-21T16:43:02;16.30;57.10
56729;DHT22;42612;52.232;7.560;2023-03-21T16:45:27;16.30;57.90
56729;DHT22;42612;52.232;7.560;2023-03-21T16:47:55;16.20;58.20
56729;DHT22;42612;52.232;7.560;2023-03-21T16:50:22;16.20;58.00
56729;DHT22;42612;52.232;7.560;2023-03-21T16:52:54;16.10;58.10
56729;DHT22;42612;52.232;7.560;2023-03-21T16:55:21;16.10;58.10
56729;DHT22;42612;52.232;7.560;2023-03-21T16:57:48;16.10;58.40
56729;DHT22;42612;52.232;7.560;2023-03-21T17:00:18;16.00;58.30
56729;DHT22;42612;52.232;7.560;2023-03-21T17:02:48;16.00;58.40
56729;DHT22;42612;52.232;7.560;2023-03-21T17:05:16;16.00;58.50
56729;DHT22;42612;52.232;7.560;2023-03-21T17:07:42;15.90;58.50
56729;DHT22;42612;52.232;7.560;2023-03-21T17:10:25;15.90;58.40
56729;DHT22;42612;52.232;7.560;2023-03-21T17:12:52;15.90;58.00
56729;DHT22;42612;52.232;7.560;2023-03-21T17:15:19;15.90;58.50
56729;DHT22;42612;52.232;7.560;2023-03-21T17:17:46;15.80;58.40
56729;DHT22;42612;52.232;7.560;2023-03-21T17:22:49;15.80;58.40
56729;DHT22;42612;52.232;7.560;2023-03-21T17:25:16;15.80;58.40
56729;DHT22;42612;52.232;7.560;2023-03-21T17:27:43;15.80;58.50
56729;DHT22;42612;52.232;7.560;2023-03-21T17:30:17;15.80;58.60
56729;DHT22;42612;52.232;7.560;2023-03-21T17:32:49;15.80;58.40
56729;DHT22;42612;52.232;7.560;2023-03-21T17:35:16;15.80;58.60
56729;DHT22;42612;52.232;7.560;2023-03-21T17:37:42;15.80;58.30
56729;DHT22;42612;52.232;7.560;2023-03-21T17:40:14;15.70;58.60
56729;DHT22;42612;52.232;7.560;2023-03-21T17:42:49;15.70;58.50
56729;DHT22;42612;52.232;7.560;2023-03-21T17:45:16;15.70;58.50
56729;DHT22;42612;52.232;7.560;2023-03-21T17:47:42;15.70;58.50